Flight Track Log - Related Links

Times and Time Zones

All times are in EDT time to prevent confusion due to time zone crossing. See the UAL252 flight status page for this flight to view local times or setup timezone preferences in your user account.

Time Position Orientation Groundspeed Altitude Reporting Facility
EDT Latitude Longitude Course Direction KTS MPH feet Rate Location/Type
Fri 12:23:41 PM 33.9214 -118.4686 90° East 210 242 1,800  Level Los Angeles Center
Fri 12:24:43 PM 33.8669 -118.5200 218° Southwest 268 308 3,600 2,177 Climbing Los Angeles Center
Fri 12:25:45 PM 33.7928 -118.5192 179° South 274 315 6,300 2,419 Climbing Los Angeles Center
Fri 12:26:00 PM 33.6800 -118.4963 101° East  Level FlightAware Approximate
Fri 12:26:47 PM 33.7153 -118.5192 180° South 283 326 8,600  Level Los Angeles Center
Fri 12:27:00 PM 33.6411 -118.3527 116° Southeast  Level FlightAware Approximate
Fri 12:27:49 PM 33.6667 -118.4200 120° Southeast 300 345 10,600  Level Los Angeles Center
Fri 12:28:00 PM 33.6333 -118.2027 90° East  Level FlightAware Approximate
Fri 12:28:51 PM 33.6431 -118.3139 105° East 337 388 12,600  Level Los Angeles Center
Fri 12:29:53 PM 33.6444 -118.1997 89° East 353 406 14,400 1,500 Climbing Los Angeles Center
Fri 12:30:55 PM 33.6444 -118.0797 90° East 360 414 15,700 1,536 Climbing Los Angeles Center
Fri 12:31:58 PM 33.6442 -117.9228 90° East 393 452 17,600 1,584 Climbing Los Angeles Center
Fri 12:33:00 PM 33.6439 -117.7889 90° East 402 463 19,000 1,355 Climbing Los Angeles Center
Fri 12:34:02 PM 33.6433 -117.6500 90° East 415 478 20,400 1,355 Climbing Los Angeles Center
Fri 12:35:04 PM 33.6419 -117.5078 91° East 426 490 21,800 1,258 Climbing Los Angeles Center
Fri 12:36:06 PM 33.6411 -117.3636 90° East 434 499 23,000 1,113 Climbing Los Angeles Center
Fri 12:37:08 PM 33.6397 -117.2156 91° East 444 511 24,100 1,161 Climbing Los Angeles Center
Fri 12:38:10 PM 33.6394 -117.0339 90° East 454 522 25,400 1,065 Climbing Los Angeles Center
Fri 12:39:12 PM 33.6369 -116.8794 91° East 464 534 26,300 871 Climbing Los Angeles Center
Fri 12:40:14 PM 33.6356 -116.7053 91° East 472 543 27,200 816 Climbing Los Angeles Center
Fri 12:41:17 PM 33.6244 -116.5439 95° East 485 558 28,000 864 Climbing Los Angeles Center
Fri 12:42:19 PM 33.6044 -116.3825 98° East 488 562 29,000 1,016 Climbing Los Angeles Center
Fri 12:43:21 PM 33.5864 -116.2233 98° East 482 555 30,100 1,016 Climbing Los Angeles Center
Fri 12:44:23 PM 33.5656 -116.0644 99° East 479 551 31,100 968 Climbing Los Angeles Center
Fri 12:45:25 PM 33.5464 -115.9056 98° East 481 554 32,100 823 Climbing Los Angeles Center
Fri 12:46:27 PM 33.5264 -115.7481 99° East 478 550 32,800 435 Climbing Los Angeles Center
Fri 12:47:29 PM 33.5019 -115.5578 99° East 481 554 33,000 48 Climbing Los Angeles Center
Fri 12:48:32 PM 33.4808 -115.3961 99° East 488 562 32,900 -48 Descending Los Angeles Center
Fri 12:49:34 PM 33.4608 -115.2364 98° East 487 560 32,900  Level Los Angeles Center
Fri 12:50:36 PM 33.4386 -115.0756 99° East 488 562 32,900 48 Level Los Angeles Center
Fri 12:51:38 PM 33.4181 -114.9122 99° East 496 571 33,000 48 Climbing Los Angeles Center
Fri 12:52:40 PM 33.3961 -114.7506 99° East 494 568 33,000  Level Los Angeles Center
Fri 12:53:42 PM 33.3692 -114.5578 99° East 491 565 33,000 -48 Level Los Angeles Center
Fri 12:54:44 PM 33.3486 -114.3981 99° East 488 562 32,900 -62 Descending Los Angeles Center
Fri 12:55:19 PM 33.3386 -114.3119 98° East 490 564 32,900  Level Albuquerque Center
Fri 12:56:21 PM 33.3172 -114.1511 99° East 489 563 32,900  Level Albuquerque Center
Fri 12:57:23 PM 33.2947 -113.9922 100° East 488 562 32,900  Level Albuquerque Center
Fri 12:58:25 PM 33.2708 -113.8333 100° East 485 558 32,900 48 Level Albuquerque Center
Fri 12:59:27 PM 33.2439 -113.6394 99° East 491 565 33,000 48 Climbing Albuquerque Center
Fri 01:00:30 PM 33.2211 -113.4800 100° East 489 563 33,000  Level Albuquerque Center
Fri 01:01:32 PM 33.1981 -113.3206 100° East 487 560 33,000 -48 Level Albuquerque Center
Fri 01:02:34 PM 33.1744 -113.1608 100° East 487 560 32,900 -48 Descending Albuquerque Center
Fri 01:03:36 PM 33.1500 -113.0028 100° East 485 558 32,900 48 Level Albuquerque Center
Fri 01:04:38 PM 33.1261 -112.8431 100° East 485 558 33,000 48 Climbing Albuquerque Center
Fri 01:05:40 PM 33.1019 -112.6831 100° East 487 560 33,000 -48 Level Albuquerque Center
Fri 01:06:42 PM 33.0731 -112.4922 100° East 486 559 32,900  Descending Albuquerque Center
Fri 01:07:44 PM 33.0478 -112.3308 101° East 492 566 33,000 48 Climbing Albuquerque Center
Fri 01:08:46 PM 33.0208 -112.1608 101° East 494 568 33,000  Level Albuquerque Center
Fri 01:09:48 PM 32.9972 -112.0025 100° East 490 564 33,000  Level Albuquerque Center
Fri 01:10:50 PM 32.9714 -111.8444 101° East 490 564 33,000  Level Albuquerque Center
Fri 01:11:52 PM 32.9469 -111.6864 100° East 487 560 33,000  Level Albuquerque Center
Fri 01:12:54 PM 32.9214 -111.5297 101° East 487 560 33,000  Level Albuquerque Center
Fri 01:13:56 PM 32.8903 -111.3394 101° East 490 564 33,000  Level Albuquerque Center
Fri 01:14:58 PM 32.8653 -111.1819 101° East 489 563 33,000 290 Level Albuquerque Center
Fri 01:16:00 PM 32.8389 -111.0239 101° East 490 564 33,600 532 Climbing Albuquerque Center
Fri 01:17:02 PM 32.8128 -110.8669 101° East 487 560 34,100 532 Climbing Albuquerque Center
Fri 01:18:04 PM 32.7861 -110.7078 101° East 490 564 34,700 435 Climbing Albuquerque Center
Fri 01:19:06 PM 32.7589 -110.5483 101° East 492 566 35,000 145 Climbing Albuquerque Center
Fri 01:20:08 PM 32.7278 -110.3603 101° East 490 564 35,000  Level Albuquerque Center
Fri 01:21:10 PM 32.7014 -110.2025 101° East 489 563 35,000  Level Albuquerque Center
Fri 01:22:12 PM 32.6731 -110.0447 102° East 489 563 35,000  Level Albuquerque Center
Fri 01:23:15 PM 32.6458 -109.8850 101° East 494 568 35,000  Level Albuquerque Center
Fri 01:24:17 PM 32.6192 -109.7264 101° East 493 567 35,000  Level Albuquerque Center
Fri 01:25:19 PM 32.5856 -109.5389 102° East 494 568 35,000  Level Albuquerque Center
Fri 01:26:21 PM 32.5539 -109.3822 103° East 492 566 35,000 -48 Level Albuquerque Center
Fri 01:27:23 PM 32.5267 -109.2244 102° East 492 566 34,900 -48 Descending Albuquerque Center
Fri 01:28:25 PM 32.4986 -109.0653 102° East 494 568 34,900  Level Albuquerque Center
Fri 01:29:27 PM 32.4681 -108.9083 103° East 494 568 34,900 48 Level Albuquerque Center
Fri 01:30:29 PM 32.4367 -108.7503 103° East 494 568 35,000 48 Climbing Albuquerque Center
Fri 01:31:31 PM 32.4008 -108.5589 102° East 498 573 35,000  Level Albuquerque Center
Fri 01:32:33 PM 32.3714 -108.4014 102° East 494 568 35,000  Level Albuquerque Center
Fri 01:33:35 PM 32.3411 -108.2447 103° East 491 565 35,000 -48 Level Albuquerque Center
Fri 01:34:37 PM 32.3117 -108.0878 102° East 491 565 34,900  Descending Albuquerque Center
Fri 01:35:39 PM 32.2825 -107.9308 102° East 493 567 35,000  Climbing Albuquerque Center
Fri 01:36:41 PM 32.2458 -107.7431 103° East 492 566 34,900  Descending Albuquerque Center
Fri 01:37:43 PM 32.2158 -107.5886 103° East 490 564 35,000  Climbing Albuquerque Center
Fri 01:38:45 PM 32.1844 -107.4269 103° East 490 564 34,900 -48 Descending Albuquerque Center
Fri 01:39:47 PM 32.1547 -107.2781 103° East 492 566 34,900  Level Albuquerque Center
Fri 01:40:49 PM 32.1250 -107.1214 103° East 495 570 34,900  Level Albuquerque Center
Fri 01:41:51 PM 32.0878 -106.9336 103° East 496 571 34,900 48 Level Albuquerque Center
Fri 01:42:53 PM 32.0556 -106.7761 104° East 499 574 35,000 48 Climbing Albuquerque Center
Fri 01:43:55 PM 32.0236 -106.6178 103° East 500 575 35,000  Level Albuquerque Center
Fri 01:44:57 PM 31.9908 -106.4586 104° East 501 577 35,000  Level Albuquerque Center
Fri 01:45:59 PM 31.9669 -106.2967 100° East 507 583 35,000  Level Albuquerque Center
Fri 01:47:01 PM 31.9711 -106.1003 89° East 502 578 35,000  Level Albuquerque Center
Fri 01:48:04 PM 31.9883 -105.9328 83° East 502 578 35,000 -48 Level Albuquerque Center
Fri 01:49:06 PM 32.0033 -105.7908 83° East 497 572 34,900 -48 Descending Albuquerque Center
Fri 01:50:08 PM 32.0231 -105.5969 83° East 495 570 34,900  Level Albuquerque Center
Fri 01:51:10 PM 32.0403 -105.4344 83° East 498 573 34,900  Level Albuquerque Center
Fri 01:52:12 PM 32.0575 -105.2742 83° East 494 568 34,900  Level Albuquerque Center
Fri 01:53:13 PM 32.0742 -105.1142 83° East 491 565 34,900 49 Level Albuquerque Center
Fri 01:54:15 PM 32.0906 -104.9514 83° East 496 571 35,000 48 Climbing Albuquerque Center
Fri 01:55:17 PM 32.1069 -104.7886 83° East 498 573 35,000 -48 Level Albuquerque Center
Fri 01:56:19 PM 32.1219 -104.6269 84° East 498 573 34,900  Descending Albuquerque Center
Fri 01:57:21 PM 32.1411 -104.4336 83° East 495 570 35,000 48 Climbing Albuquerque Center
Fri 01:58:23 PM 32.1558 -104.2711 84° East 498 573 35,000  Level Albuquerque Center
Fri 01:59:25 PM 32.1711 -104.1122 83° East 490 564 35,000  Level Albuquerque Center
Fri 02:00:27 PM 32.1883 -103.9408 83° East 491 565 35,000  Level Albuquerque Center
Fri 02:01:29 PM 32.2008 -103.7814 85° East 490 564 35,000  Level Albuquerque Center
Fri 02:02:31 PM 32.2167 -103.6231 83° East 487 560 35,000  Level Albuquerque Center
Fri 02:03:32 PM 32.2300 -103.4639 84° East 488 562 35,000  Level Albuquerque Center
Fri 02:04:34 PM 32.2431 -103.3056 84° East 486 559 35,000  Level Albuquerque Center
Fri 02:05:36 PM 32.2553 -103.1483 85° East 485 558 35,000  Level Albuquerque Center
Fri 02:06:38 PM 32.2714 -102.9594 84° East 485 558 35,000  Level Albuquerque Center
Fri 02:07:25 PM 32.2819 -102.8386 84° East 478 550 35,000  Level Fort Worth Center
Fri 02:08:25 PM 32.2928 -102.6819 85° East 478 550 35,000  Level Fort Worth Center
Fri 02:09:25 PM 32.3033 -102.5253 85° East 478 550 35,000  Level Fort Worth Center
Fri 02:10:25 PM 32.3158 -102.3664 85° East 478 550 35,000  Level Fort Worth Center
Fri 02:11:25 PM 32.3283 -102.2072 85° East 478 550 35,000  Level Fort Worth Center
Fri 02:12:25 PM 32.3428 -102.0506 84° East 478 550 35,000  Level Fort Worth Center
Fri 02:13:25 PM 32.3547 -101.8939 85° East 478 550 35,000  Level Fort Worth Center
Fri 02:14:25 PM 32.3664 -101.7347 85° East 478 550 35,000  Level Fort Worth Center
Fri 02:15:25 PM 32.3781 -101.5803 85° East 478 550 35,000  Level Fort Worth Center
Fri 02:16:25 PM 32.3892 -101.4233 85° East 478 550 35,000  Level Fort Worth Center
Fri 02:17:25 PM 32.3953 -101.3031 87° East 478 550 35,000  Level Fort Worth Center
Fri 02:18:25 PM 32.4067 -101.1289 86° East 473 544 35,000  Level Fort Worth Center
Fri 02:19:25 PM 32.4194 -100.9744 84° East 473 544 35,000  Level Fort Worth Center
Fri 02:20:25 PM 32.4258 -100.8197 87° East 479 551 35,000  Level Fort Worth Center
Fri 02:21:25 PM 32.4364 -100.6625 85° East 474 545 35,000  Level Fort Worth Center
Fri 02:22:25 PM 32.4444 -100.5028 87° East 474 545 35,000  Level Fort Worth Center
Fri 02:23:25 PM 32.4525 -100.3481 86° East 474 545 35,000  Level Fort Worth Center
Fri 02:24:25 PM 32.4603 -100.1906 87° East 479 551 35,000  Level Fort Worth Center
Fri 02:25:25 PM 32.4697 -100.0358 86° East 479 551 35,000  Level Fort Worth Center
Fri 02:26:25 PM 32.4797 -99.8614 86° East 474 545 35,000  Level Fort Worth Center
Fri 02:27:25 PM 32.5033 -99.7042 80° East 479 551 35,000  Level Fort Worth Center
Fri 02:28:25 PM 32.5292 -99.5472 79° East 479 551 35,000  Level Fort Worth Center
Fri 02:29:25 PM 32.5567 -99.3928 78° East 484 557 35,000  Level Fort Worth Center
Fri 02:30:25 PM 32.5800 -99.2353 80° East 484 557 35,000  Level Fort Worth Center
Fri 02:31:25 PM 32.6050 -99.0806 79° East 484 557 35,000  Level Fort Worth Center
Fri 02:32:25 PM 32.6300 -98.9256 79° East 484 557 35,000  Level Fort Worth Center
Fri 02:33:25 PM 32.6547 -98.7731 79° East 484 557 35,000  Level Fort Worth Center
Fri 02:34:25 PM 32.6772 -98.6178 80° East 484 557 35,000  Level Fort Worth Center
Fri 02:35:25 PM 32.7036 -98.4603 79° East 479 551 35,000  Level Fort Worth Center
Fri 02:36:25 PM 32.7214 -98.3247 81° East 473 544 35,000  Level Fort Worth Center
Fri 02:37:25 PM 32.7478 -98.1519 80° East 473 544 35,000  Level Fort Worth Center
Fri 02:38:25 PM 32.7672 -98.0114 81° East 478 550 35,000  Level Fort Worth Center
Fri 02:39:25 PM 32.7908 -97.8433 80° East 478 550 35,000  Level Fort Worth Center
Fri 02:40:25 PM 32.8100 -97.7025 81° East 478 550 35,000  Level Fort Worth Center
Fri 02:41:25 PM 32.8375 -97.5247 80° East 488 562 35,000  Level Fort Worth Center
Fri 02:42:25 PM 32.8606 -97.3664 80° East 491 565 35,000  Level Fort Worth Center
Fri 02:43:25 PM 32.8811 -97.2278 80° East 483 556 35,000  Level Fort Worth Center
Fri 02:44:25 PM 32.8892 -97.0522 87° East 478 550 35,000  Level Fort Worth Center
Fri 02:45:25 PM 32.8886 -96.9064 90° East 478 550 35,000  Level Fort Worth Center
Fri 02:46:25 PM 32.8881 -96.7578 90° East 465 535 35,000  Level Fort Worth Center
Fri 02:47:25 PM 32.8828 -96.5747 92° East 478 550 35,000  Level Fort Worth Center
Fri 02:48:25 PM 32.8858 -96.4114 89° East 489 563 35,000  Level Fort Worth Center
Fri 02:49:25 PM 32.8886 -96.2531 89° East 489 563 35,000  Level Fort Worth Center
Fri 02:50:25 PM 32.8869 -96.0972 91° East 474 545 35,000  Level Fort Worth Center
Fri 02:51:25 PM 32.8875 -95.9389 90° East 474 545 35,000  Level Fort Worth Center
Fri 02:52:25 PM 32.8856 -95.7806 91° East 474 545 35,000  Level Fort Worth Center
Fri 02:53:25 PM 32.8833 -95.6225 91° East 474 545 35,000  Level Fort Worth Center
Fri 02:54:25 PM 32.8792 -95.4792 92° East 480 552 35,000  Level Fort Worth Center
Fri 02:55:25 PM 32.8850 -95.3231 87° East 475 547 35,000  Level Fort Worth Center
Fri 02:56:25 PM 32.9072 -95.1667 80° East 475 547 35,000  Level Fort Worth Center
Fri 02:57:25 PM 32.9317 -95.0125 79° East 475 547 35,000  Level Fort Worth Center
Fri 02:58:25 PM 32.9558 -94.8608 79° East 470 541 35,000  Level Fort Worth Center
Fri 02:59:25 PM 32.9797 -94.7067 79° East 470 541 35,000  Level Fort Worth Center
Fri 03:00:25 PM 33.0011 -94.5500 81° East 470 541 35,000  Level Fort Worth Center
Fri 03:01:25 PM 33.0247 -94.3956 80° East 470 541 35,000  Level Fort Worth Center
Fri 03:02:25 PM 33.0458 -94.2389 81° East 470 541 35,000  Level Fort Worth Center
Fri 03:03:25 PM 33.0689 -94.0819 80° East 470 541 35,000  Level Fort Worth Center
Fri 03:04:25 PM 33.0900 -93.9272 81° East 470 541 35,000  Level Fort Worth Center
Fri 03:05:25 PM 33.1125 -93.7703 80° East 470 541 35,000  Level Fort Worth Center
Fri 03:06:25 PM 33.1350 -93.6156 80° East 470 541 35,000  Level Fort Worth Center
Fri 03:07:25 PM 33.1575 -93.4633 80° East 470 541 35,000  Level Fort Worth Center
Fri 03:08:25 PM 33.1797 -93.3083 80° East 470 541 35,000  Level Fort Worth Center
Fri 03:09:25 PM 33.2017 -93.1558 80° East 470 541 35,000  Level Fort Worth Center
Fri 03:10:25 PM 33.2236 -93.0008 80° East 470 541 35,000  Level Fort Worth Center
Fri 03:11:25 PM 33.2450 -92.8458 81° East 470 541 35,000  Level Fort Worth Center
Fri 03:12:25 PM 33.2644 -92.6933 81° East 470 541 35,000  Level Fort Worth Center
Fri 03:13:25 PM 33.2794 -92.5361 83° East 470 541 35,000  Level Fort Worth Center
Fri 03:14:56 PM 33.3000 -92.2833 84° East 474 545 35,000  Level Memphis Center
Fri 03:15:56 PM 33.3169 -92.1272 83° East 474 545 35,000  Level Memphis Center
Fri 03:16:56 PM 33.3294 -91.9733 84° East 474 545 35,000  Level Memphis Center
Fri 03:17:56 PM 33.3461 -91.8169 83° East 474 545 35,000  Level Memphis Center
Fri 03:18:56 PM 33.3519 -91.6753 87° East 474 545 35,000  Level Memphis Center
Fri 03:19:56 PM 33.3617 -91.5186 86° East 474 545 35,000  Level Memphis Center
Fri 03:20:56 PM 33.3778 -91.3647 83° East 474 545 35,000  Level Memphis Center
Fri 03:21:56 PM 33.3914 -91.2056 84° East 474 545 35,000  Level Memphis Center
Fri 03:22:56 PM 33.4028 -91.0514 85° East 474 545 35,000  Level Memphis Center
Fri 03:23:56 PM 33.4161 -90.8922 84° East 474 545 35,000  Level Memphis Center
Fri 03:24:56 PM 33.4292 -90.7356 84° East 474 545 35,000  Level Memphis Center
Fri 03:25:56 PM 33.4400 -90.5814 85° East 474 545 35,000  Level Memphis Center
Fri 03:26:56 PM 33.4525 -90.4244 85° East 474 545 35,000  Level Memphis Center
Fri 03:27:56 PM 33.4631 -90.2650 85° East 474 545 35,000  Level Memphis Center
Fri 03:28:56 PM 33.4775 -90.1081 84° East 474 545 35,000  Level Memphis Center
Fri 03:29:56 PM 33.4894 -89.9511 85° East 474 545 35,000 500 Level Memphis Center
Fri 03:30:56 PM 33.4994 -89.7942 86° East 474 545 36,000 900 Climbing Memphis Center
Fri 03:31:56 PM 33.5111 -89.6397 85° East 474 545 36,800 500 Climbing Memphis Center
Fri 03:32:56 PM 33.5225 -89.4875 85° East 464 534 37,000 100 Climbing Memphis Center
Fri 03:33:56 PM 33.5319 -89.3356 86° East 464 534 37,000  Level Memphis Center
Fri 03:34:56 PM 33.5411 -89.1833 86° East 464 534 37,000  Level Memphis Center
Fri 03:35:56 PM 33.5519 -89.0311 85° East 464 534 37,000  Level Memphis Center
Fri 03:36:56 PM 33.5606 -88.8789 86° East 464 534 37,000  Level Memphis Center
Fri 03:37:56 PM 33.5650 -88.7292 88° East 458 527 37,000  Level Memphis Center
Fri 03:38:56 PM 33.5756 -88.5769 85° East 458 527 37,000  Level Memphis Center
Fri 03:39:56 PM 33.5856 -88.4197 86° East 465 535 37,000  Level Memphis Center
Fri 03:41:56 PM 33.6039 -88.1117 86° East 465 535 37,000  Level Atlanta Center
Fri 03:42:56 PM 33.6150 -87.9600 85° East 459 528 37,000  Level Atlanta Center
Fri 03:43:56 PM 33.6219 -87.8031 87° East 459 528 37,000  Level Atlanta Center
Fri 03:44:56 PM 33.6308 -87.6489 86° East 459 528 37,000  Level Atlanta Center
Fri 03:45:56 PM 33.6372 -87.4944 87° East 459 528 37,000  Level Atlanta Center
Fri 03:46:56 PM 33.6458 -87.3375 86° East 459 528 37,000  Level Atlanta Center
Fri 03:47:56 PM 33.6561 -87.1833 85° East 459 528 37,000  Level Atlanta Center
Fri 03:48:56 PM 33.6619 -87.0289 87° East 459 528 37,000  Level Atlanta Center
Fri 03:49:56 PM 33.6678 -86.8767 87° East 459 528 37,000  Level Atlanta Center
Fri 03:50:56 PM 33.6669 -86.7169 90° East 459 528 37,000  Level Atlanta Center
Fri 03:51:56 PM 33.6661 -86.5622 90° East 459 528 37,000  Level Atlanta Center
Fri 03:52:56 PM 33.6650 -86.4075 90° East 459 528 37,000  Level Atlanta Center
Fri 03:53:56 PM 33.6617 -86.2550 91° East 459 528 37,000  Level Atlanta Center
Fri 03:54:56 PM 33.6600 -86.1028 91° East 459 528 37,000  Level Atlanta Center
Fri 03:55:00 PM 33.6587 -86.0938 91° East  Level FlightAware Approximate
Fri 03:55:56 PM 33.6583 -85.9531 91° East 459 528 37,000  Level Atlanta Center
Fri 03:56:56 PM 33.6606 -85.7958 89° East 459 528 37,000  Level Atlanta Center
Fri 03:57:56 PM 33.6544 -85.6486 93° East 446 513 37,000  Level Atlanta Center
Fri 03:58:56 PM 33.6542 -85.4939 90° East 451 519 37,000  Level Atlanta Center
Fri 03:59:56 PM 33.6517 -85.3439 91° East 463 533 37,000  Level Atlanta Center
Fri 04:00:56 PM 33.6469 -85.1867 92° East 458 527 37,000  Level Atlanta Center
Fri 04:01:56 PM 33.6442 -85.0319 91° East 459 528 37,000  Level Atlanta Center
Fri 04:02:56 PM 33.6392 -84.8772 92° East 464 534 37,000  Level Atlanta Center
Fri 04:03:56 PM 33.6358 -84.7200 91° East 470 541 37,000  Level Atlanta Center
Fri 04:04:56 PM 33.6303 -84.5628 92° East 470 541 37,000  Level Atlanta Center
Fri 04:05:56 PM 33.6267 -84.3956 91° East 459 528 37,000  Level Atlanta Center
Fri 04:06:56 PM 33.6417 -84.2408 83° East 459 528 37,000  Level Atlanta Center
Fri 04:07:56 PM 33.6814 -84.1136 69° East 446 513 37,000  Level Atlanta Center
Fri 04:08:56 PM 33.7503 -83.9939 55° Northeast 430 495 37,000  Level Atlanta Center
Fri 04:09:00 PM 33.7605 -83.9781 55° Northeast  Level FlightAware Approximate
Fri 04:09:56 PM 33.8233 -83.8814 52° Northeast 430 495 37,000  Level Atlanta Center
Fri 04:10:56 PM 33.9025 -83.7561 53° Northeast 424 488 37,000  Level Atlanta Center
Fri 04:11:56 PM 33.9731 -83.6406 54° Northeast 419 482 37,000  Level Atlanta Center
Fri 04:12:56 PM 34.0458 -83.5300 52° Northeast 414 476 37,000  Level Atlanta Center
Fri 04:13:56 PM 34.1161 -83.4167 53° Northeast 414 476 37,000  Level Atlanta Center
Fri 04:14:56 PM 34.1867 -83.3056 52° Northeast 415 478 37,000  Level Atlanta Center
Fri 04:15:56 PM 34.2589 -83.1892 53° Northeast 420 483 37,000  Level Atlanta Center
Fri 04:16:56 PM 34.3289 -83.0728 54° Northeast 415 478 37,000  Level Atlanta Center
Fri 04:17:56 PM 34.4011 -82.9589 52° Northeast 421 484 37,000  Level Atlanta Center
Fri 04:18:56 PM 34.4731 -82.8419 53° Northeast 421 484 37,000  Level Atlanta Center
Fri 04:19:56 PM 34.5428 -82.7275 53° Northeast 416 479 37,000  Level Atlanta Center
Fri 04:20:56 PM 34.6144 -82.6128 53° Northeast 421 484 37,000  Level Atlanta Center
Fri 04:21:56 PM 34.6861 -82.5003 52° Northeast 421 484 37,000  Level Atlanta Center
Fri 04:22:56 PM 34.7597 -82.3803 53° Northeast 427 491 37,000  Level Atlanta Center
Fri 04:23:56 PM 34.8311 -82.2625 54° Northeast 432 497 37,000  Level Atlanta Center
Fri 04:24:56 PM 34.9006 -82.1494 53° Northeast 427 491 37,000  Level Atlanta Center
Fri 04:25:56 PM 34.9656 -82.0467 52° Northeast 419 482 37,000 -750 Level Atlanta Center
Fri 04:26:56 PM 35.0325 -81.9308 55° Northeast 419 482 35,500 -1,000 Descending Atlanta Center
Fri 04:27:56 PM 35.1033 -81.7997 57° Northeast 414 476 35,000 -250 Descending Atlanta Center
Fri 04:28:56 PM 35.1678 -81.6758 58° Northeast 419 482 35,000  Level Atlanta Center
Fri 04:29:56 PM 35.2300 -81.5597 57° Northeast 416 479 35,000  Level Atlanta Center
Fri 04:30:56 PM 35.2942 -81.4356 58° Northeast 422 486 35,000  Level Atlanta Center
Fri 04:32:00 PM 35.3521 -81.2872 52° Northeast  Level FlightAware Approximate
Fri 04:32:56 PM 35.4161 -81.1947 52° Northeast 415 478 35,000  Level Atlanta Center
Fri 04:33:56 PM 35.4758 -81.0753 58° Northeast 415 478 35,000  Level Atlanta Center
Fri 04:34:56 PM 35.5400 -80.9608 55° Northeast 415 478 35,000  Level Atlanta Center
Fri 04:35:56 PM 35.5994 -80.8461 57° Northeast 415 478 35,000 -100 Level Atlanta Center
Fri 04:36:56 PM 35.6592 -80.7314 57° Northeast 405 466 34,800 -1,350 Descending Atlanta Center
Fri 04:37:56 PM 35.7206 -80.6139 57° Northeast 405 466 32,300 -1,900 Descending Atlanta Center
Fri 04:38:56 PM 35.7817 -80.4933 58° Northeast 405 466 31,000 -650 Descending Atlanta Center
Fri 04:39:56 PM 35.8447 -80.3678 58° Northeast 420 483 31,000  Level Atlanta Center
Fri 04:40:56 PM 35.9097 -80.2392 58° Northeast 426 490 31,000  Level Atlanta Center
Fri 04:43:12 PM 36.0489 -79.9697 57° Northeast 435 501 31,000  Level Washington Center
Fri 04:44:13 PM 36.1222 -79.8478 53° Northeast 435 501 31,000  Level Washington Center
Fri 04:45:14 PM 36.1914 -79.7203 56° Northeast 440 506 31,000  Level Washington Center
Fri 04:46:12 PM 36.2667 -79.5850 55° Northeast 435 501 31,000 -50 Level Washington Center
Fri 04:47:13 PM 36.3289 -79.4747 55° Northeast 435 501 30,900 -50 Descending Washington Center
Fri 04:48:13 PM 36.3997 -79.3492 55° Northeast 435 501 30,900 -750 Level Washington Center
Fri 04:49:13 PM 36.4681 -79.2286 55° Northeast 435 501 29,400 -942 Descending Washington Center
Fri 04:50:14 PM 36.5342 -79.1153 54° Northeast 423 487 29,000 -197 Descending Washington Center
Fri 04:51:15 PM 36.6000 -78.9994 55° Northeast 417 480 29,000  Level Washington Center
Fri 04:52:12 PM 36.6706 -78.8625 57° Northeast 417 480 29,000  Level Washington Center
Fri 04:53:13 PM 36.7364 -78.7461 55° Northeast 417 480 29,000  Level Washington Center
Fri 04:54:13 PM 36.7889 -78.6444 57° Northeast 399 459 29,000 -99 Level Washington Center
Fri 04:55:14 PM 36.8522 -78.5328 55° Northeast 394 453 28,800 -504 Descending Washington Center
Fri 04:56:12 PM 36.9133 -78.4208 56° Northeast 394 453 28,000 -407 Descending Washington Center
Fri 04:57:12 PM 36.9917 -78.2781 55° Northeast 424 488 28,000 -397 Level Washington Center
Fri 04:58:13 PM 37.0592 -78.1528 56° Northeast 435 501 27,200 -787 Descending Washington Center
Fri 04:59:14 PM 37.1178 -78.0428 56° Northeast 435 501 26,400 -595 Descending Washington Center
Fri 05:00:14 PM 37.1850 -77.9197 56° Northeast 430 495 26,000 -198 Descending Washington Center
Fri 05:01:15 PM 37.2806 -77.8367 35° Northeast 412 474 26,000 -356 Level Washington Center
Fri 05:02:12 PM 37.3817 -77.7742 26° Northeast 406 467 25,300 -872 Descending Washington Center
Fri 05:03:12 PM 37.4850 -77.7092 27° Northeast 406 467 24,300 -992 Descending Washington Center
Fri 05:04:13 PM 37.5864 -77.6464 26° Northeast 401 461 23,300 -645 Descending Washington Center
Fri 05:05:13 PM 37.6853 -77.5836 27° Northeast 396 456 23,000 -149 Descending Washington Center
Fri 05:06:14 PM 37.7761 -77.5256 27° Northeast 383 441 23,000 -99 Level Washington Center
Fri 05:07:14 PM 37.8686 -77.4672 26° Northeast 371 427 22,800 -595 Descending Washington Center
Fri 05:08:15 PM 37.9592 -77.4089 27° Northeast 366 421 21,800 -915 Descending Washington Center
Fri 05:09:12 PM 38.0678 -77.4036 North 347 399 21,000 -864 Descending Washington Center
Fri 05:10:13 PM 38.1542 -77.3478 27° Northeast 347 399 20,100 -1,082 Descending Washington Center
Fri 05:11:14 PM 38.2197 -77.2883 35° Northeast 347 399 18,800 -1,765 Descending Washington Center
Fri 05:12:12 PM 38.3125 -77.2033 36° Northeast 342 394 16,600 -1,916 Descending Washington Center
Fri 05:13:13 PM 38.3886 -77.1333 36° Northeast 337 388 15,000 -1,230 Descending Washington Center
Fri 05:14:14 PM 38.4700 -77.1244 North 299 344 14,100 -1,190 Descending Washington Center
Fri 05:15:14 PM 38.5472 -77.1233 North 283 326 12,600 -1,525 Descending Washington Center
Fri 05:16:12 PM 38.6222 -77.1169 North 276 318 11,100 -950 Descending Washington Center
Fri 05:16:55 PM 38.6500 -77.0500 62° Northeast 289 333 11,000 -117 Descending Potomac TRACON
Fri 05:17:55 PM 38.6667 -76.9500 78° East 294 338 10,900 -600 Descending Potomac TRACON
Fri 05:18:55 PM 38.6833 -76.8500 78° East 290 334 9,800 -900 Descending Potomac TRACON
Fri 05:19:55 PM 38.7000 -76.7500 78° East 285 328 9,100 -1,211 Descending Potomac TRACON
Fri 05:20:49 PM 38.7333 -76.6667 63° Northeast 280 322 7,500 -1,579 Descending Potomac TRACON
Fri 05:21:49 PM 38.7667 -76.5833 63° Northeast 276 318 6,100 -843 Descending Potomac TRACON
Fri 05:22:50 PM 38.8167 -76.5167 46° Northeast 279 321 5,800 -942 Descending Potomac TRACON
Fri 05:23:50 PM 38.9000 -76.5000 North 262 302 4,200 -857 Descending Potomac TRACON
Fri 05:24:56 PM 38.9667 -76.4667 21° North 229 264 4,000 -143 Descending Potomac TRACON
Fri 05:25:56 PM 39.0167 -76.4833 345° North 212 244 3,900 -350 Descending Potomac TRACON
Fri 05:26:56 PM 39.0500 -76.5333 311° West 167 192 3,300 -600 Descending Potomac TRACON

Login

Don't have an account? Register now (free) for customized features, flight alerts, and more!